Lowlands Sky — 3FJW9 — position and weather

sailwx.info

Track history (hours):
 
Tides and Currents Weather Stations Pressure Air Temp Water Temp Dewpoint Dewpoint Depression Visibility Wind Speed Wind Dir Waves Ship Positions

Lowlands Sky

Last reported at 2014-Dec-20 00:21 UTC. Time now 2014-Dec-20 01:34 UTC.
Position N 55°03' W 001°21'.

Length 177 m; draft 9.9 m.

Type: Cargo ship. MMSI: 370830000.

Date/timePositionNaut miles runAvg speedWind from/ knotsBaromVisibWave heightAir tempDewpointWater temp
2014-Dec-20 00:21N 55°03' W 001°21'3 3.5
2014-Dec-19 23:34N 55°02' W 001°16'10 9.6
2014-Dec-19 22:33N 55°00' W 000°60'1010.0
2014-Dec-19 21:33N 54°59' W 000°42'11 9.2
2014-Dec-19 20:19N 54°57' W 000°23'7 9.5
2014-Dec-19 19:33N 54°56' W 000°10'10 9.0
2014-Dec-19 18:30N 54°54' E 000°06'12 8.6
2014-Dec-19 17:07N 54°51' E 000°26'200 7.5
2014-Dec-18 14:16N 51°46' E 002°37'1013.1
2014-Dec-18 13:30N 51°39' E 002°26'1313.5
2014-Dec-18 12:34N 51°30' E 002°12'1414.0
2014-Dec-18 11:33N 51°19' E 001°57'1414.5
2014-Dec-18 10:34N 51°08' E 001°43'1514.6
2014-Dec-18 09:34N 50°57' E 001°27'  
Track history (hours):
 
Tides and Currents Weather Stations Pressure Air Temp Water Temp Dewpoint Dewpoint Depression Visibility Wind Speed Wind Dir Waves Ship Positions

Lowlands Sky

Last reported at 2014-Dec-20 00:21 UTC. Time now 2014-Dec-20 01:34 UTC.
Position N 55°03' W 001°21'.

Length 177 m; draft 9.9 m.

Type: Cargo ship. MMSI: 370830000.

Date/timePositionNaut miles runAvg speedWind from/ knotsBaromVisibWave heightAir tempDewpointWater temp
2014-Dec-20 00:21N 55°03' W 001°21'3 3.5
2014-Dec-19 23:34N 55°02' W 001°16'10 9.6
2014-Dec-19 22:33N 55°00' W 000°60'1010.0
2014-Dec-19 21:33N 54°59' W 000°42'11 9.2
2014-Dec-19 20:19N 54°57' W 000°23'7 9.5
2014-Dec-19 19:33N 54°56' W 000°10'10 9.0
2014-Dec-19 18:30N 54°54' E 000°06'12 8.6
2014-Dec-19 17:07N 54°51' E 000°26'200 7.5
2014-Dec-18 14:16N 51°46' E 002°37'1013.1
2014-Dec-18 13:30N 51°39' E 002°26'1313.5
2014-Dec-18 12:34N 51°30' E 002°12'1414.0
2014-Dec-18 11:33N 51°19' E 001°57'1414.5
2014-Dec-18 10:34N 51°08' E 001°43'1514.6
2014-Dec-18 09:34N 50°57' E 001°27'  

Dump ship's entire track history